sensor_id;sensor_type;location;lat;lon;timestamp;P1;durP1;ratioP1;P2;durP2;ratioP2
14965;SDS011;7577;45.226;5.798;2022-09-23T00:01:05;4.70;;;2.10;;
14965;SDS011;7577;45.226;5.798;2022-09-23T00:03:38;3.10;;;1.90;;
14965;SDS011;7577;45.226;5.798;2022-09-23T00:06:12;4.23;;;2.03;;
14965;SDS011;7577;45.226;5.798;2022-09-23T00:08:45;4.50;;;2.23;;
14965;SDS011;7577;45.226;5.798;2022-09-23T00:11:17;2.77;;;2.00;;
14965;SDS011;7577;45.226;5.798;2022-09-23T00:13:49;5.33;;;2.20;;
14965;SDS011;7577;45.226;5.798;2022-09-23T00:16:22;4.27;;;1.87;;
14965;SDS011;7577;45.226;5.798;2022-09-23T00:18:55;4.27;;;2.07;;
14965;SDS011;7577;45.226;5.798;2022-09-23T00:21:25;3.67;;;2.20;;
14965;SDS011;7577;45.226;5.798;2022-09-23T00:23:56;3.60;;;2.03;;
14965;SDS011;7577;45.226;5.798;2022-09-23T00:26:27;2.97;;;2.10;;
14965;SDS011;7577;45.226;5.798;2022-09-23T00:29:10;2.90;;;1.97;;
14965;SDS011;7577;45.226;5.798;2022-09-23T00:31:43;3.87;;;2.10;;
14965;SDS011;7577;45.226;5.798;2022-09-23T00:34:14;5.87;;;2.17;;
14965;SDS011;7577;45.226;5.798;2022-09-23T00:36:45;5.00;;;2.10;;
14965;SDS011;7577;45.226;5.798;2022-09-23T00:39:15;2.80;;;2.03;;
14965;SDS011;7577;45.226;5.798;2022-09-23T00:41:45;2.50;;;2.30;;
14965;SDS011;7577;45.226;5.798;2022-09-23T00:47:33;4.20;;;1.80;;
14965;SDS011;7577;45.226;5.798;2022-09-23T00:50:06;3.20;;;2.07;;
14965;SDS011;7577;45.226;5.798;2022-09-23T00:52:47;2.47;;;1.97;;
14965;SDS011;7577;45.226;5.798;2022-09-23T00:55:21;5.83;;;1.90;;
14965;SDS011;7577;45.226;5.798;2022-09-23T00:57:54;5.13;;;2.10;;
14965;SDS011;7577;45.226;5.798;2022-09-23T01:00:26;4.57;;;2.17;;
14965;SDS011;7577;45.226;5.798;2022-09-23T01:02:57;2.70;;;1.90;;
14965;SDS011;7577;45.226;5.798;2022-09-23T01:05:28;2.00;;;1.80;;
14965;SDS011;7577;45.226;5.798;2022-09-23T01:08:00;5.20;;;2.10;;
14965;SDS011;7577;45.226;5.798;2022-09-23T01:10:33;2.60;;;2.27;;
14965;SDS011;7577;45.226;5.798;2022-09-23T01:13:09;5.30;;;2.00;;
14965;SDS011;7577;45.226;5.798;2022-09-23T01:15:45;3.13;;;2.00;;
14965;SDS011;7577;45.226;5.798;2022-09-23T01:18:20;6.27;;;2.10;;
14965;SDS011;7577;45.226;5.798;2022-09-23T01:20:57;2.20;;;1.80;;
14965;SDS011;7577;45.226;5.798;2022-09-23T01:24:07;7.33;;;2.10;;
14965;SDS011;7577;45.226;5.798;2022-09-23T01:27:01;2.47;;;2.27;;
14965;SDS011;7577;45.226;5.798;2022-09-23T01:33:08;4.77;;;2.17;;
14965;SDS011;7577;45.226;5.798;2022-09-23T01:35:42;4.23;;;1.80;;
14965;SDS011;7577;45.226;5.798;2022-09-23T01:38:21;4.60;;;2.10;;
14965;SDS011;7577;45.226;5.798;2022-09-23T01:40:58;3.23;;;1.90;;
14965;SDS011;7577;45.226;5.798;2022-09-23T01:43:33;3.13;;;1.90;;
14965;SDS011;7577;45.226;5.798;2022-09-23T01:46:07;3.27;;;1.90;;
14965;SDS011;7577;45.226;5.798;2022-09-23T01:48:51;2.87;;;1.90;;
14965;SDS011;7577;45.226;5.798;2022-09-23T01:51:24;4.60;;;1.97;;
14965;SDS011;7577;45.226;5.798;2022-09-23T01:54:00;2.30;;;1.83;;
14965;SDS011;7577;45.226;5.798;2022-09-23T01:56:33;3.33;;;2.43;;
14965;SDS011;7577;45.226;5.798;2022-09-23T01:59:07;5.23;;;2.10;;
14965;SDS011;7577;45.226;5.798;2022-09-23T02:01:42;2.30;;;2.10;;
14965;SDS011;7577;45.226;5.798;2022-09-23T02:04:17;2.70;;;2.10;;
14965;SDS011;7577;45.226;5.798;2022-09-23T02:06:50;2.47;;;2.10;;
14965;SDS011;7577;45.226;5.798;2022-09-23T02:09:24;2.10;;;1.80;;
14965;SDS011;7577;45.226;5.798;2022-09-23T02:11:59;3.70;;;1.93;;
14965;SDS011;7577;45.226;5.798;2022-09-23T02:14:34;2.63;;;2.00;;
14965;SDS011;7577;45.226;5.798;2022-09-23T02:17:07;2.97;;;1.70;;
14965;SDS011;7577;45.226;5.798;2022-09-23T02:19:40;4.57;;;2.07;;
14965;SDS011;7577;45.226;5.798;2022-09-23T02:22:15;3.70;;;2.10;;
14965;SDS011;7577;45.226;5.798;2022-09-23T02:25:05;3.60;;;2.20;;
14965;SDS011;7577;45.226;5.798;2022-09-23T02:27:39;2.73;;;1.93;;
14965;SDS011;7577;45.226;5.798;2022-09-23T02:30:13;2.10;;;1.70;;
14965;SDS011;7577;45.226;5.798;2022-09-23T02:33:05;4.03;;;2.07;;
14965;SDS011;7577;45.226;5.798;2022-09-23T02:35:40;4.50;;;2.63;;
14965;SDS011;7577;45.226;5.798;2022-09-23T02:38:14;5.03;;;2.00;;
14965;SDS011;7577;45.226;5.798;2022-09-23T02:40:51;4.60;;;2.30;;
14965;SDS011;7577;45.226;5.798;2022-09-23T02:43:38;2.60;;;1.97;;
14965;SDS011;7577;45.226;5.798;2022-09-23T02:46:13;2.97;;;1.90;;
14965;SDS011;7577;45.226;5.798;2022-09-23T02:48:58;3.00;;;1.80;;
14965;SDS011;7577;45.226;5.798;2022-09-23T02:51:41;3.03;;;2.10;;
14965;SDS011;7577;45.226;5.798;2022-09-23T02:54:15;3.07;;;2.10;;
14965;SDS011;7577;45.226;5.798;2022-09-23T02:56:48;2.70;;;2.13;;
14965;SDS011;7577;45.226;5.798;2022-09-23T02:59:27;2.17;;;1.97;;
14965;SDS011;7577;45.226;5.798;2022-09-23T03:02:10;3.90;;;2.20;;
14965;SDS011;7577;45.226;5.798;2022-09-23T03:04:46;2.87;;;1.93;;
14965;SDS011;7577;45.226;5.798;2022-09-23T03:07:31;2.93;;;2.47;;
14965;SDS011;7577;45.226;5.798;2022-09-23T03:10:21;2.53;;;2.00;;
14965;SDS011;7577;45.226;5.798;2022-09-23T03:12:56;3.83;;;2.07;;
14965;SDS011;7577;45.226;5.798;2022-09-23T03:15:33;2.47;;;2.10;;
14965;SDS011;7577;45.226;5.798;2022-09-23T03:18:08;2.93;;;1.97;;
14965;SDS011;7577;45.226;5.798;2022-09-23T03:20:44;2.20;;;2.00;;
14965;SDS011;7577;45.226;5.798;2022-09-23T03:23:30;7.27;;;2.43;;
14965;SDS011;7577;45.226;5.798;2022-09-23T03:26:03;2.10;;;1.90;;
14965;SDS011;7577;45.226;5.798;2022-09-23T03:28:35;2.80;;;1.90;;
14965;SDS011;7577;45.226;5.798;2022-09-23T03:31:09;1.93;;;1.77;;
14965;SDS011;7577;45.226;5.798;2022-09-23T03:33:44;3.13;;;1.70;;
14965;SDS011;7577;45.226;5.798;2022-09-23T03:36:27;2.80;;;1.97;;
14965;SDS011;7577;45.226;5.798;2022-09-23T03:39:23;2.70;;;1.80;;
14965;SDS011;7577;45.226;5.798;2022-09-23T03:42:04;2.00;;;1.67;;
14965;SDS011;7577;45.226;5.798;2022-09-23T03:44:41;3.70;;;2.07;;
14965;SDS011;7577;45.226;5.798;2022-09-23T03:47:15;2.77;;;1.83;;
14965;SDS011;7577;45.226;5.798;2022-09-23T03:49:49;2.33;;;2.13;;
14965;SDS011;7577;45.226;5.798;2022-09-23T03:52:23;3.87;;;1.90;;
14965;SDS011;7577;45.226;5.798;2022-09-23T03:54:54;4.30;;;2.20;;
14965;SDS011;7577;45.226;5.798;2022-09-23T03:57:26;3.30;;;2.10;;
14965;SDS011;7577;45.226;5.798;2022-09-23T04:00:08;2.73;;;2.07;;
14965;SDS011;7577;45.226;5.798;2022-09-23T04:02:43;2.93;;;2.27;;
14965;SDS011;7577;45.226;5.798;2022-09-23T04:05:13;2.63;;;1.97;;
14965;SDS011;7577;45.226;5.798;2022-09-23T04:07:44;2.90;;;2.00;;
14965;SDS011;7577;45.226;5.798;2022-09-23T04:10:15;2.43;;;1.97;;
14965;SDS011;7577;45.226;5.798;2022-09-23T04:12:45;2.63;;;1.93;;
14965;SDS011;7577;45.226;5.798;2022-09-23T04:15:15;2.50;;;2.03;;
14965;SDS011;7577;45.226;5.798;2022-09-23T04:17:58;2.50;;;1.90;;
14965;SDS011;7577;45.226;5.798;2022-09-23T04:20:28;2.83;;;1.97;;
14965;SDS011;7577;45.226;5.798;2022-09-23T04:22:59;2.77;;;2.20;;
14965;SDS011;7577;45.226;5.798;2022-09-23T04:25:43;3.17;;;2.13;;
14965;SDS011;7577;45.226;5.798;2022-09-23T04:28:14;2.20;;;2.00;;
14965;SDS011;7577;45.226;5.798;2022-09-23T04:30:44;3.33;;;2.07;;
14965;SDS011;7577;45.226;5.798;2022-09-23T04:33:15;3.93;;;2.03;;
14965;SDS011;7577;45.226;5.798;2022-09-23T04:35:48;3.37;;;2.10;;
14965;SDS011;7577;45.226;5.798;2022-09-23T04:38:31;2.37;;;2.17;;
14965;SDS011;7577;45.226;5.798;2022-09-23T04:41:02;2.83;;;1.93;;
14965;SDS011;7577;45.226;5.798;2022-09-23T04:43:36;3.53;;;2.00;;
14965;SDS011;7577;45.226;5.798;2022-09-23T04:46:08;2.40;;;2.20;;
14965;SDS011;7577;45.226;5.798;2022-09-23T04:48:41;2.30;;;2.07;;
14965;SDS011;7577;45.226;5.798;2022-09-23T04:53:56;3.97;;;2.20;;
14965;SDS011;7577;45.226;5.798;2022-09-23T04:56:27;3.13;;;2.33;;
14965;SDS011;7577;45.226;5.798;2022-09-23T04:58:59;2.40;;;2.00;;
14965;SDS011;7577;45.226;5.798;2022-09-23T05:01:31;1.83;;;1.73;;
14965;SDS011;7577;45.226;5.798;2022-09-23T05:04:06;2.67;;;1.70;;
14965;SDS011;7577;45.226;5.798;2022-09-23T05:06:44;2.60;;;1.80;;
14965;SDS011;7577;45.226;5.798;2022-09-23T05:09:17;5.77;;;2.30;;
14965;SDS011;7577;45.226;5.798;2022-09-23T05:11:51;2.37;;;1.93;;
14965;SDS011;7577;45.226;5.798;2022-09-23T05:14:24;3.83;;;2.23;;
14965;SDS011;7577;45.226;5.798;2022-09-23T05:17:01;3.50;;;2.40;;
14965;SDS011;7577;45.226;5.798;2022-09-23T05:19:31;3.87;;;2.20;;
14965;SDS011;7577;45.226;5.798;2022-09-23T05:22:11;2.33;;;2.13;;
14965;SDS011;7577;45.226;5.798;2022-09-23T05:24:42;2.13;;;1.80;;
14965;SDS011;7577;45.226;5.798;2022-09-23T05:27:20;3.23;;;2.20;;
14965;SDS011;7577;45.226;5.798;2022-09-23T05:29:50;3.40;;;1.93;;
14965;SDS011;7577;45.226;5.798;2022-09-23T05:32:46;4.00;;;2.10;;
14965;SDS011;7577;45.226;5.798;2022-09-23T05:35:36;3.43;;;1.80;;
14965;SDS011;7577;45.226;5.798;2022-09-23T05:38:30;2.20;;;2.00;;
14965;SDS011;7577;45.226;5.798;2022-09-23T05:41:20;3.10;;;2.30;;
14965;SDS011;7577;45.226;5.798;2022-09-23T05:58:53;7.87;;;1.70;;
14965;SDS011;7577;45.226;5.798;2022-09-23T06:01:26;5.43;;;2.10;;
14965;SDS011;7577;45.226;5.798;2022-09-23T06:04:10;9.13;;;2.53;;
14965;SDS011;7577;45.226;5.798;2022-09-23T06:06:41;2.00;;;1.67;;
14965;SDS011;7577;45.226;5.798;2022-09-23T06:09:26;2.87;;;1.70;;
14965;SDS011;7577;45.226;5.798;2022-09-23T06:11:56;3.47;;;1.93;;
14965;SDS011;7577;45.226;5.798;2022-09-23T06:14:26;2.50;;;2.00;;
14965;SDS011;7577;45.226;5.798;2022-09-23T06:16:57;2.20;;;1.90;;
14965;SDS011;7577;45.226;5.798;2022-09-23T06:19:27;3.50;;;1.87;;
14965;SDS011;7577;45.226;5.798;2022-09-23T06:21:57;4.13;;;1.93;;
14965;SDS011;7577;45.226;5.798;2022-09-23T06:24:30;1.70;;;1.60;;
14965;SDS011;7577;45.226;5.798;2022-09-23T06:27:11;4.57;;;1.87;;
14965;SDS011;7577;45.226;5.798;2022-09-23T06:29:41;3.67;;;1.70;;
14965;SDS011;7577;45.226;5.798;2022-09-23T06:32:11;2.97;;;1.63;;
14965;SDS011;7577;45.226;5.798;2022-09-23T06:34:42;4.50;;;2.00;;
14965;SDS011;7577;45.226;5.798;2022-09-23T06:37:13;3.80;;;1.90;;
14965;SDS011;7577;45.226;5.798;2022-09-23T06:39:43;2.17;;;1.60;;
14965;SDS011;7577;45.226;5.798;2022-09-23T06:42:13;3.00;;;2.10;;
14965;SDS011;7577;45.226;5.798;2022-09-23T06:44:44;3.67;;;1.90;;
14965;SDS011;7577;45.226;5.798;2022-09-23T06:47:14;3.37;;;1.90;;
14965;SDS011;7577;45.226;5.798;2022-09-23T06:49:57;4.17;;;2.17;;
14965;SDS011;7577;45.226;5.798;2022-09-23T06:52:28;3.47;;;1.60;;
14965;SDS011;7577;45.226;5.798;2022-09-23T06:54:58;4.23;;;1.90;;
14965;SDS011;7577;45.226;5.798;2022-09-23T06:57:28;2.60;;;2.17;;
14965;SDS011;7577;45.226;5.798;2022-09-23T07:00:09;3.23;;;1.97;;
14965;SDS011;7577;45.226;5.798;2022-09-23T07:02:42;5.10;;;2.00;;
14965;SDS011;7577;45.226;5.798;2022-09-23T07:05:13;3.40;;;2.00;;
14965;SDS011;7577;45.226;5.798;2022-09-23T07:07:43;2.33;;;1.90;;
14965;SDS011;7577;45.226;5.798;2022-09-23T07:10:14;3.40;;;1.93;;
14965;SDS011;7577;45.226;5.798;2022-09-23T07:12:44;2.87;;;1.57;;
14965;SDS011;7577;45.226;5.798;2022-09-23T07:15:14;4.57;;;2.10;;
14965;SDS011;7577;45.226;5.798;2022-09-23T07:17:45;6.43;;;1.97;;
14965;SDS011;7577;45.226;5.798;2022-09-23T07:20:15;2.80;;;1.97;;
14965;SDS011;7577;45.226;5.798;2022-09-23T07:22:48;3.13;;;2.10;;
14965;SDS011;7577;45.226;5.798;2022-09-23T07:25:31;7.23;;;2.10;;
14965;SDS011;7577;45.226;5.798;2022-09-23T07:28:02;4.33;;;2.20;;
14965;SDS011;7577;45.226;5.798;2022-09-23T07:30:42;4.00;;;1.97;;
14965;SDS011;7577;45.226;5.798;2022-09-23T07:33:13;2.37;;;2.00;;
14965;SDS011;7577;45.226;5.798;2022-09-23T07:35:43;4.30;;;2.10;;
14965;SDS011;7577;45.226;5.798;2022-09-23T07:38:14;5.03;;;2.20;;
14965;SDS011;7577;45.226;5.798;2022-09-23T07:40:44;7.20;;;2.20;;
14965;SDS011;7577;45.226;5.798;2022-09-23T07:43:15;5.43;;;2.20;;
14965;SDS011;7577;45.226;5.798;2022-09-23T07:45:45;3.27;;;2.30;;
14965;SDS011;7577;45.226;5.798;2022-09-23T07:48:15;4.83;;;3.10;;
14965;SDS011;7577;45.226;5.798;2022-09-23T07:50:46;2.50;;;2.03;;
14965;SDS011;7577;45.226;5.798;2022-09-23T07:53:17;4.17;;;1.90;;
14965;SDS011;7577;45.226;5.798;2022-09-23T07:55:51;2.77;;;1.60;;
14965;SDS011;7577;45.226;5.798;2022-09-23T07:58:23;3.03;;;1.80;;
14965;SDS011;7577;45.226;5.798;2022-09-23T08:00:55;3.30;;;1.93;;
14965;SDS011;7577;45.226;5.798;2022-09-23T08:03:29;3.23;;;1.80;;
14965;SDS011;7577;45.226;5.798;2022-09-23T08:06:05;3.47;;;2.30;;
14965;SDS011;7577;45.226;5.798;2022-09-23T08:08:38;5.00;;;2.20;;
14965;SDS011;7577;45.226;5.798;2022-09-23T08:11:10;2.70;;;2.03;;
14965;SDS011;7577;45.226;5.798;2022-09-23T08:13:54;2.50;;;1.80;;
14965;SDS011;7577;45.226;5.798;2022-09-23T08:16:24;3.30;;;1.80;;
14965;SDS011;7577;45.226;5.798;2022-09-23T08:18:55;2.73;;;1.70;;
14965;SDS011;7577;45.226;5.798;2022-09-23T08:21:25;3.20;;;1.63;;
14965;SDS011;7577;45.226;5.798;2022-09-23T08:24:00;2.50;;;1.67;;
14965;SDS011;7577;45.226;5.798;2022-09-23T08:26:31;3.23;;;1.57;;
14965;SDS011;7577;45.226;5.798;2022-09-23T08:29:18;2.53;;;1.67;;
14965;SDS011;7577;45.226;5.798;2022-09-23T08:31:50;3.00;;;1.70;;
14965;SDS011;7577;45.226;5.798;2022-09-23T08:34:21;2.50;;;1.60;;
14965;SDS011;7577;45.226;5.798;2022-09-23T08:36:55;3.17;;;1.73;;
14965;SDS011;7577;45.226;5.798;2022-09-23T08:39:27;2.57;;;1.60;;
14965;SDS011;7577;45.226;5.798;2022-09-23T08:42:02;3.00;;;1.80;;
14965;SDS011;7577;45.226;5.798;2022-09-23T08:44:44;1.80;;;1.67;;
14965;SDS011;7577;45.226;5.798;2022-09-23T08:47:21;2.00;;;1.73;;
14965;SDS011;7577;45.226;5.798;2022-09-23T08:50:00;3.13;;;1.77;;
14965;SDS011;7577;45.226;5.798;2022-09-23T08:52:45;3.63;;;1.67;;
14965;SDS011;7577;45.226;5.798;2022-09-23T08:55:18;3.20;;;1.97;;
14965;SDS011;7577;45.226;5.798;2022-09-23T08:58:00;2.87;;;1.80;;
14965;SDS011;7577;45.226;5.798;2022-09-23T09:00:32;4.47;;;1.80;;
14965;SDS011;7577;45.226;5.798;2022-09-23T09:03:07;3.37;;;2.20;;
14965;SDS011;7577;45.226;5.798;2022-09-23T09:05:43;5.83;;;1.90;;
14965;SDS011;7577;45.226;5.798;2022-09-23T09:08:15;4.13;;;2.30;;
14965;SDS011;7577;45.226;5.798;2022-09-23T09:10:50;4.93;;;2.40;;
14965;SDS011;7577;45.226;5.798;2022-09-23T09:13:27;5.20;;;2.50;;
14965;SDS011;7577;45.226;5.798;2022-09-23T09:16:14;4.87;;;2.40;;
14965;SDS011;7577;45.226;5.798;2022-09-23T09:18:50;6.27;;;2.60;;
14965;SDS011;7577;45.226;5.798;2022-09-23T09:21:24;5.63;;;2.30;;
14965;SDS011;7577;45.226;5.798;2022-09-23T09:23:58;3.07;;;2.40;;
14965;SDS011;7577;45.226;5.798;2022-09-23T09:26:41;6.43;;;2.43;;
14965;SDS011;7577;45.226;5.798;2022-09-23T09:29:13;3.30;;;2.23;;
14965;SDS011;7577;45.226;5.798;2022-09-23T09:31:46;5.10;;;2.77;;
14965;SDS011;7577;45.226;5.798;2022-09-23T09:34:23;5.80;;;2.40;;
14965;SDS011;7577;45.226;5.798;2022-09-23T09:36:58;5.77;;;2.43;;
14965;SDS011;7577;45.226;5.798;2022-09-23T09:39:33;6.63;;;2.40;;
14965;SDS011;7577;45.226;5.798;2022-09-23T09:42:08;5.13;;;2.23;;
14965;SDS011;7577;45.226;5.798;2022-09-23T09:44:45;5.73;;;2.10;;
14965;SDS011;7577;45.226;5.798;2022-09-23T09:47:19;3.13;;;2.20;;
14965;SDS011;7577;45.226;5.798;2022-09-23T09:49:56;4.50;;;2.07;;
14965;SDS011;7577;45.226;5.798;2022-09-23T09:52:33;4.03;;;2.17;;
14965;SDS011;7577;45.226;5.798;2022-09-23T09:55:21;5.50;;;1.90;;
14965;SDS011;7577;45.226;5.798;2022-09-23T09:57:55;6.30;;;1.80;;
14965;SDS011;7577;45.226;5.798;2022-09-23T10:00:35;4.97;;;2.20;;
14965;SDS011;7577;45.226;5.798;2022-09-23T10:03:24;4.93;;;2.10;;
14965;SDS011;7577;45.226;5.798;2022-09-23T10:06:04;4.07;;;2.20;;
14965;SDS011;7577;45.226;5.798;2022-09-23T10:08:47;5.73;;;2.10;;
14965;SDS011;7577;45.226;5.798;2022-09-23T10:11:35;4.47;;;2.37;;
14965;SDS011;7577;45.226;5.798;2022-09-23T10:14:12;4.93;;;1.70;;
14965;SDS011;7577;45.226;5.798;2022-09-23T10:17:00;3.30;;;1.57;;
14965;SDS011;7577;45.226;5.798;2022-09-23T10:19:33;2.13;;;1.77;;
14965;SDS011;7577;45.226;5.798;2022-09-23T10:22:18;6.07;;;1.87;;
14965;SDS011;7577;45.226;5.798;2022-09-23T10:24:52;2.57;;;1.60;;
14965;SDS011;7577;45.226;5.798;2022-09-23T10:27:25;2.63;;;1.70;;
14965;SDS011;7577;45.226;5.798;2022-09-23T10:29:59;4.77;;;1.50;;
14965;SDS011;7577;45.226;5.798;2022-09-23T10:32:32;4.70;;;1.73;;
14965;SDS011;7577;45.226;5.798;2022-09-23T10:35:13;2.93;;;1.73;;
14965;SDS011;7577;45.226;5.798;2022-09-23T10:37:47;3.43;;;1.97;;
14965;SDS011;7577;45.226;5.798;2022-09-23T10:40:22;4.20;;;1.63;;
14965;SDS011;7577;45.226;5.798;2022-09-23T10:43:18;3.60;;;1.53;;
14965;SDS011;7577;45.226;5.798;2022-09-23T10:46:12;2.53;;;1.53;;
14965;SDS011;7577;45.226;5.798;2022-09-23T10:52:04;3.90;;;1.60;;
14965;SDS011;7577;45.226;5.798;2022-09-23T10:54:44;5.03;;;1.80;;
14965;SDS011;7577;45.226;5.798;2022-09-23T10:57:32;2.37;;;1.37;;
14965;SDS011;7577;45.226;5.798;2022-09-23T11:00:11;2.17;;;1.53;;
14965;SDS011;7577;45.226;5.798;2022-09-23T11:03:11;3.53;;;1.90;;
14965;SDS011;7577;45.226;5.798;2022-09-23T11:05:41;3.37;;;1.70;;
14965;SDS011;7577;45.226;5.798;2022-09-23T11:08:26;2.73;;;1.60;;
14965;SDS011;7577;45.226;5.798;2022-09-23T11:11:02;2.13;;;1.73;;
14965;SDS011;7577;45.226;5.798;2022-09-23T11:13:47;3.23;;;1.80;;
14965;SDS011;7577;45.226;5.798;2022-09-23T11:16:45;4.63;;;1.73;;
14965;SDS011;7577;45.226;5.798;2022-09-23T11:19:27;2.27;;;1.53;;
14965;SDS011;7577;45.226;5.798;2022-09-23T11:22:21;4.20;;;1.97;;
14965;SDS011;7577;45.226;5.798;2022-09-23T11:25:21;2.80;;;1.80;;
14965;SDS011;7577;45.226;5.798;2022-09-23T11:28:10;3.50;;;1.40;;
14965;SDS011;7577;45.226;5.798;2022-09-23T11:30:52;4.77;;;1.30;;
14965;SDS011;7577;45.226;5.798;2022-09-23T11:33:29;4.50;;;1.40;;
14965;SDS011;7577;45.226;5.798;2022-09-23T11:36:20;3.77;;;1.40;;
14965;SDS011;7577;45.226;5.798;2022-09-23T11:38:51;3.17;;;1.33;;
14965;SDS011;7577;45.226;5.798;2022-09-23T11:41:26;3.47;;;1.30;;
14965;SDS011;7577;45.226;5.798;2022-09-23T11:44:10;2.07;;;1.40;;
14965;SDS011;7577;45.226;5.798;2022-09-23T11:46:41;2.00;;;1.30;;
14965;SDS011;7577;45.226;5.798;2022-09-23T11:49:15;1.27;;;1.17;;
14965;SDS011;7577;45.226;5.798;2022-09-23T11:52:04;2.77;;;1.40;;
14965;SDS011;7577;45.226;5.798;2022-09-23T11:54:38;2.13;;;1.33;;
14965;SDS011;7577;45.226;5.798;2022-09-23T11:57:14;4.97;;;1.60;;
14965;SDS011;7577;45.226;5.798;2022-09-23T11:59:45;3.20;;;1.30;;
14965;SDS011;7577;45.226;5.798;2022-09-23T12:02:19;3.57;;;1.47;;
14965;SDS011;7577;45.226;5.798;2022-09-23T12:04:56;2.90;;;1.60;;
14965;SDS011;7577;45.226;5.798;2022-09-23T12:07:30;2.43;;;1.70;;
14965;SDS011;7577;45.226;5.798;2022-09-23T12:10:07;1.77;;;1.60;;
14965;SDS011;7577;45.226;5.798;2022-09-23T12:12:40;3.17;;;1.30;;
14965;SDS011;7577;45.226;5.798;2022-09-23T12:15:18;3.53;;;1.23;;
14965;SDS011;7577;45.226;5.798;2022-09-23T12:17:58;3.03;;;1.80;;
14965;SDS011;7577;45.226;5.798;2022-09-23T12:20:43;2.10;;;1.60;;
14965;SDS011;7577;45.226;5.798;2022-09-23T12:23:20;2.00;;;1.50;;
14965;SDS011;7577;45.226;5.798;2022-09-23T12:26:02;2.20;;;1.50;;
14965;SDS011;7577;45.226;5.798;2022-09-23T12:28:35;2.30;;;1.47;;
14965;SDS011;7577;45.226;5.798;2022-09-23T12:31:09;3.70;;;1.37;;
14965;SDS011;7577;45.226;5.798;2022-09-23T12:33:51;3.57;;;2.00;;
14965;SDS011;7577;45.226;5.798;2022-09-23T12:36:24;2.90;;;1.63;;
14965;SDS011;7577;45.226;5.798;2022-09-23T12:39:13;1.70;;;1.57;;
14965;SDS011;7577;45.226;5.798;2022-09-23T12:41:46;1.97;;;1.30;;
14965;SDS011;7577;45.226;5.798;2022-09-23T12:44:28;7.13;;;1.90;;
14965;SDS011;7577;45.226;5.798;2022-09-23T12:50:00;3.47;;;1.60;;
14965;SDS011;7577;45.226;5.798;2022-09-23T12:52:32;2.27;;;1.57;;
14965;SDS011;7577;45.226;5.798;2022-09-23T12:57:59;1.50;;;1.40;;
14965;SDS011;7577;45.226;5.798;2022-09-23T13:00:29;2.53;;;1.40;;
14965;SDS011;7577;45.226;5.798;2022-09-23T13:02:59;4.23;;;1.30;;
14965;SDS011;7577;45.226;5.798;2022-09-23T13:05:47;2.83;;;1.57;;
14965;SDS011;7577;45.226;5.798;2022-09-23T13:08:38;2.13;;;1.60;;
14965;SDS011;7577;45.226;5.798;2022-09-23T13:11:13;3.33;;;1.40;;
14965;SDS011;7577;45.226;5.798;2022-09-23T13:13:46;3.03;;;1.50;;
14965;SDS011;7577;45.226;5.798;2022-09-23T13:16:20;1.73;;;1.20;;
14965;SDS011;7577;45.226;5.798;2022-09-23T13:18:52;2.43;;;1.43;;
14965;SDS011;7577;45.226;5.798;2022-09-23T13:24:38;2.97;;;1.40;;
14965;SDS011;7577;45.226;5.798;2022-09-23T13:27:22;2.80;;;1.30;;
14965;SDS011;7577;45.226;5.798;2022-09-23T13:29:58;1.60;;;1.30;;
14965;SDS011;7577;45.226;5.798;2022-09-23T13:32:30;2.73;;;1.40;;
14965;SDS011;7577;45.226;5.798;2022-09-23T13:35:04;2.40;;;1.40;;
14965;SDS011;7577;45.226;5.798;2022-09-23T13:37:43;1.53;;;1.30;;
14965;SDS011;7577;45.226;5.798;2022-09-23T13:40:19;1.50;;;1.30;;
14965;SDS011;7577;45.226;5.798;2022-09-23T13:42:54;2.80;;;1.30;;
14965;SDS011;7577;45.226;5.798;2022-09-23T13:45:27;1.90;;;1.50;;
14965;SDS011;7577;45.226;5.798;2022-09-23T13:48:01;1.83;;;1.47;;
14965;SDS011;7577;45.226;5.798;2022-09-23T13:50:33;4.47;;;1.40;;
14965;SDS011;7577;45.226;5.798;2022-09-23T13:53:08;2.43;;;1.53;;
14965;SDS011;7577;45.226;5.798;2022-09-23T13:56:00;4.10;;;1.67;;
14965;SDS011;7577;45.226;5.798;2022-09-23T13:58:33;2.73;;;1.30;;
14965;SDS011;7577;45.226;5.798;2022-09-23T14:01:07;3.93;;;1.37;;
14965;SDS011;7577;45.226;5.798;2022-09-23T14:03:40;2.37;;;1.40;;
14965;SDS011;7577;45.226;5.798;2022-09-23T14:06:11;3.03;;;1.50;;
14965;SDS011;7577;45.226;5.798;2022-09-23T14:08:44;2.87;;;1.30;;
14965;SDS011;7577;45.226;5.798;2022-09-23T14:11:16;2.23;;;1.23;;
14965;SDS011;7577;45.226;5.798;2022-09-23T14:13:59;2.53;;;1.40;;
14965;SDS011;7577;45.226;5.798;2022-09-23T14:16:35;2.20;;;1.50;;
14965;SDS011;7577;45.226;5.798;2022-09-23T14:19:21;2.47;;;1.10;;
14965;SDS011;7577;45.226;5.798;2022-09-23T14:21:54;3.90;;;1.50;;
14965;SDS011;7577;45.226;5.798;2022-09-23T14:24:29;4.13;;;1.50;;
14965;SDS011;7577;45.226;5.798;2022-09-23T14:27:07;2.57;;;1.20;;
14965;SDS011;7577;45.226;5.798;2022-09-23T14:29:46;2.33;;;1.13;;
14965;SDS011;7577;45.226;5.798;2022-09-23T14:32:18;1.23;;;1.13;;
14965;SDS011;7577;45.226;5.798;2022-09-23T14:34:53;2.57;;;1.10;;
14965;SDS011;7577;45.226;5.798;2022-09-23T14:37:39;5.83;;;1.40;;
14965;SDS011;7577;45.226;5.798;2022-09-23T14:40:29;3.83;;;1.30;;
14965;SDS011;7577;45.226;5.798;2022-09-23T14:43:03;3.40;;;1.20;;
14965;SDS011;7577;45.226;5.798;2022-09-23T14:45:36;4.00;;;1.50;;
14965;SDS011;7577;45.226;5.798;2022-09-23T15:07:54;2.10;;;1.40;;
14965;SDS011;7577;45.226;5.798;2022-09-23T15:10:26;5.10;;;2.03;;
14965;SDS011;7577;45.226;5.798;2022-09-23T15:13:08;4.20;;;1.30;;
14965;SDS011;7577;45.226;5.798;2022-09-23T15:15:42;2.50;;;1.40;;
14965;SDS011;7577;45.226;5.798;2022-09-23T15:18:14;1.77;;;1.27;;
14965;SDS011;7577;45.226;5.798;2022-09-23T15:20:50;3.83;;;1.47;;
14965;SDS011;7577;45.226;5.798;2022-09-23T15:23:33;2.53;;;1.20;;
14965;SDS011;7577;45.226;5.798;2022-09-23T15:26:06;2.77;;;1.37;;
14965;SDS011;7577;45.226;5.798;2022-09-23T15:29:13;1.97;;;1.50;;
14965;SDS011;7577;45.226;5.798;2022-09-23T15:31:45;1.90;;;1.30;;
14965;SDS011;7577;45.226;5.798;2022-09-23T15:34:19;2.90;;;1.00;;
14965;SDS011;7577;45.226;5.798;2022-09-23T15:36:49;1.53;;;1.27;;
14965;SDS011;7577;45.226;5.798;2022-09-23T15:39:20;2.73;;;1.10;;
14965;SDS011;7577;45.226;5.798;2022-09-23T15:42:07;1.63;;;1.10;;
14965;SDS011;7577;45.226;5.798;2022-09-23T15:44:41;2.67;;;1.50;;
14965;SDS011;7577;45.226;5.798;2022-09-23T15:47:12;2.40;;;1.20;;
14965;SDS011;7577;45.226;5.798;2022-09-23T15:49:47;2.57;;;1.43;;
14965;SDS011;7577;45.226;5.798;2022-09-23T15:52:34;1.33;;;1.03;;
14965;SDS011;7577;45.226;5.798;2022-09-23T15:55:12;1.20;;;1.10;;
14965;SDS011;7577;45.226;5.798;2022-09-23T15:57:44;1.30;;;1.20;;
14965;SDS011;7577;45.226;5.798;2022-09-23T16:00:15;1.40;;;1.20;;
14965;SDS011;7577;45.226;5.798;2022-09-23T16:02:47;3.73;;;1.50;;
14965;SDS011;7577;45.226;5.798;2022-09-23T16:05:22;2.23;;;1.40;;
14965;SDS011;7577;45.226;5.798;2022-09-23T16:07:59;1.70;;;1.40;;
14965;SDS011;7577;45.226;5.798;2022-09-23T16:10:33;1.90;;;1.27;;
14965;SDS011;7577;45.226;5.798;2022-09-23T16:13:10;1.70;;;1.30;;
14965;SDS011;7577;45.226;5.798;2022-09-23T16:15:41;2.03;;;1.30;;
14965;SDS011;7577;45.226;5.798;2022-09-23T16:18:15;3.23;;;1.33;;
14965;SDS011;7577;45.226;5.798;2022-09-23T16:20:47;2.53;;;1.50;;
14965;SDS011;7577;45.226;5.798;2022-09-23T16:24:05;2.60;;;1.40;;
14965;SDS011;7577;45.226;5.798;2022-09-23T16:26:43;4.00;;;1.47;;
14965;SDS011;7577;45.226;5.798;2022-09-23T16:29:14;3.00;;;1.13;;
14965;SDS011;7577;45.226;5.798;2022-09-23T16:31:45;1.90;;;1.30;;
14965;SDS011;7577;45.226;5.798;2022-09-23T17:46:30;2.60;;;1.80;;
14965;SDS011;7577;45.226;5.798;2022-09-23T18:15:10;6.47;;;2.20;;
14965;SDS011;7577;45.226;5.798;2022-09-23T18:17:42;3.43;;;2.00;;
14965;SDS011;7577;45.226;5.798;2022-09-23T18:20:23;5.57;;;2.20;;
14965;SDS011;7577;45.226;5.798;2022-09-23T18:22:57;4.23;;;1.77;;
14965;SDS011;7577;45.226;5.798;2022-09-23T18:25:41;4.47;;;2.60;;
14965;SDS011;7577;45.226;5.798;2022-09-23T18:28:11;2.87;;;1.70;;
14965;SDS011;7577;45.226;5.798;2022-09-23T18:30:51;4.07;;;1.60;;